sensor_id;sensor_type;location;lat;lon;timestamp;pressure;altitude;pressure_sealevel;temperature;humidity
56074;BME280;41950;55.840;37.442;2023-04-01T00:01:02;98224.69;;;1.86;86.27
56074;BME280;41950;55.840;37.442;2023-04-01T00:03:29;98245.06;;;2.03;86.44
56074;BME280;41950;55.840;37.442;2023-04-01T00:05:58;98247.63;;;2.06;86.50
56074;BME280;41950;55.840;37.442;2023-04-01T00:08:26;98244.19;;;2.07;86.53
56074;BME280;41950;55.840;37.442;2023-04-01T00:10:52;98239.94;;;2.04;86.30
56074;BME280;41950;55.840;37.442;2023-04-01T00:13:18;98241.66;;;2.05;86.32
56074;BME280;41950;55.840;37.442;2023-04-01T00:15:45;98221.25;;;1.90;86.18
56074;BME280;41950;55.840;37.442;2023-04-01T00:18:11;98230.59;;;2.00;86.12
56074;BME280;41950;55.840;37.442;2023-04-01T00:20:38;98247.63;;;2.04;86.30
56074;BME280;41950;55.840;37.442;2023-04-01T00:23:04;98238.28;;;1.97;86.25
56074;BME280;41950;55.840;37.442;2023-04-01T00:25:30;98248.50;;;2.00;86.34
56074;BME280;41950;55.840;37.442;2023-04-01T00:27:56;98240.00;;;1.98;86.43
56074;BME280;41950;55.840;37.442;2023-04-01T00:30:21;98224.69;;;1.86;86.26
56074;BME280;41950;55.840;37.442;2023-04-01T00:32:51;98241.72;;;1.96;86.22
56074;BME280;41950;55.840;37.442;2023-04-01T00:35:17;98218.78;;;1.79;86.55
56074;BME280;41950;55.840;37.442;2023-04-01T00:37:44;98234.91;;;1.89;86.61
56074;BME280;41950;55.840;37.442;2023-04-01T00:40:23;98230.63;;;1.97;86.41
56074;BME280;41950;55.840;37.442;2023-04-01T00:42:49;98228.91;;;1.99;86.39
56074;BME280;41950;55.840;37.442;2023-04-01T00:45:36;98230.63;;;1.97;86.30
56074;BME280;41950;55.840;37.442;2023-04-01T00:48:23;98221.25;;;1.90;86.49
56074;BME280;41950;55.840;37.442;2023-04-01T00:50:54;98221.34;;;1.79;86.64
56074;BME280;41950;55.840;37.442;2023-04-01T00:53:22;98221.31;;;1.81;86.82
56074;BME280;41950;55.840;37.442;2023-04-01T00:56:07;98222.97;;;1.88;86.77
56074;BME280;41950;55.840;37.442;2023-04-01T00:58:38;98219.59;;;1.86;86.66
56074;BME280;41950;55.840;37.442;2023-04-01T01:01:06;98223.81;;;1.89;86.88
56074;BME280;41950;55.840;37.442;2023-04-01T01:03:31;98217.00;;;1.88;86.68
56074;BME280;41950;55.840;37.442;2023-04-01T01:09:36;98222.06;;;2.00;86.34
56074;BME280;41950;55.840;37.442;2023-04-01T01:12:07;98220.34;;;2.02;86.62
56074;BME280;41950;55.840;37.442;2023-04-01T01:14:39;98219.47;;;2.04;86.62
56074;BME280;41950;55.840;37.442;2023-04-01T01:25:46;98229.72;;;2.04;86.60
56074;BME280;41950;55.840;37.442;2023-04-01T01:36:30;98224.59;;;2.04;86.47
56074;BME280;41950;55.840;37.442;2023-04-01T01:38:57;98225.47;;;2.02;86.68
56074;BME280;41950;55.840;37.442;2023-04-01T01:41:25;98228.00;;;2.03;86.47
56074;BME280;41950;55.840;37.442;2023-04-01T01:43:53;98227.19;;;2.01;86.68
56074;BME280;41950;55.840;37.442;2023-04-01T01:46:24;98202.50;;;1.91;86.63
56074;BME280;41950;55.840;37.442;2023-04-01T01:48:51;98228.00;;;2.06;86.85
56074;BME280;41950;55.840;37.442;2023-04-01T01:51:19;98233.09;;;2.09;86.80
56074;BME280;41950;55.840;37.442;2023-04-01T01:53:45;98226.28;;;2.05;86.86
56074;BME280;41950;55.840;37.442;2023-04-01T01:56:12;98232.22;;;2.10;86.91
56074;BME280;41950;55.840;37.442;2023-04-01T01:58:47;98198.22;;;1.95;86.81
56074;BME280;41950;55.840;37.442;2023-04-01T02:01:18;98231.38;;;2.08;86.96
56074;BME280;41950;55.840;37.442;2023-04-01T02:03:46;98220.31;;;2.06;86.77
56074;BME280;41950;55.840;37.442;2023-04-01T02:06:17;98217.75;;;2.06;86.95
56074;BME280;41950;55.840;37.442;2023-04-01T02:11:18;98229.69;;;2.07;86.66
56074;BME280;41950;55.840;37.442;2023-04-01T02:16:55;98217.81;;;1.97;86.80
56074;BME280;41950;55.840;37.442;2023-04-01T02:19:27;98234.81;;;2.04;86.89
56074;BME280;41950;55.840;37.442;2023-04-01T02:21:57;98237.41;;;2.00;86.86
56074;BME280;41950;55.840;37.442;2023-04-01T02:24:26;98236.56;;;2.02;87.07
56074;BME280;41950;55.840;37.442;2023-04-01T02:26:53;98234.00;;;1.99;87.04
56074;BME280;41950;55.840;37.442;2023-04-01T02:29:24;98245.06;;;2.04;87.25
56074;BME280;41950;55.840;37.442;2023-04-01T02:31:53;98240.81;;;2.03;87.16
56074;BME280;41950;55.840;37.442;2023-04-01T02:34:21;98240.81;;;2.00;87.27
56074;BME280;41950;55.840;37.442;2023-04-01T02:36:49;98242.50;;;2.03;87.03
56074;BME280;41950;55.840;37.442;2023-04-01T02:39:15;98250.19;;;2.03;86.86
56074;BME280;41950;55.840;37.442;2023-04-01T02:41:42;98237.44;;;1.91;87.03
56074;BME280;41950;55.840;37.442;2023-04-01T02:44:09;98245.13;;;1.95;87.20
56074;BME280;41950;55.840;37.442;2023-04-01T02:46:35;98248.50;;;1.99;87.51
56074;BME280;41950;55.840;37.442;2023-04-01T02:49:01;98251.06;;;1.99;87.33
56074;BME280;41950;55.840;37.442;2023-04-01T02:51:26;98261.31;;;1.99;87.42
56074;BME280;41950;55.840;37.442;2023-04-01T02:53:52;98253.66;;;1.97;87.43
56074;BME280;41950;55.840;37.442;2023-04-01T02:56:18;98235.81;;;1.83;87.48
56074;BME280;41950;55.840;37.442;2023-04-01T02:58:45;98254.50;;;1.98;87.47
56074;BME280;41950;55.840;37.442;2023-04-01T03:01:11;98263.00;;;2.00;87.39
56074;BME280;41950;55.840;37.442;2023-04-01T03:03:36;98263.84;;;2.00;87.45
56074;BME280;41950;55.840;37.442;2023-04-01T03:06:10;98255.31;;;2.04;87.50
56074;BME280;41950;55.840;37.442;2023-04-01T03:08:36;98243.41;;;1.97;87.36
56074;BME280;41950;55.840;37.442;2023-04-01T03:11:02;98262.97;;;2.03;87.36
56074;BME280;41950;55.840;37.442;2023-04-01T03:13:28;98240.03;;;1.92;87.20
56074;BME280;41950;55.840;37.442;2023-04-01T03:15:54;98262.97;;;2.03;87.38
56074;BME280;41950;55.840;37.442;2023-04-01T03:18:20;98247.72;;;1.88;86.94
56074;BME280;41950;55.840;37.442;2023-04-01T03:20:45;98263.91;;;1.93;87.13
56074;BME280;41950;55.840;37.442;2023-04-01T03:23:11;98267.31;;;1.87;86.99
56074;BME280;41950;55.840;37.442;2023-04-01T03:25:37;98250.34;;;1.75;87.31
56074;BME280;41950;55.840;37.442;2023-04-01T03:28:03;98235.88;;;1.70;87.50
56074;BME280;41950;55.840;37.442;2023-04-01T03:30:29;98247.75;;;1.80;87.56
56074;BME280;41950;55.840;37.442;2023-04-01T03:32:58;98247.75;;;1.81;87.63
56074;BME280;41950;55.840;37.442;2023-04-01T03:35:25;98263.88;;;1.96;87.40
56074;BME280;41950;55.840;37.442;2023-04-01T03:37:51;98269.00;;;1.91;87.52
56074;BME280;41950;55.840;37.442;2023-04-01T03:40:17;98278.41;;;1.92;87.53
56074;BME280;41950;55.840;37.442;2023-04-01T03:42:43;98280.97;;;1.94;87.58
56074;BME280;41950;55.840;37.442;2023-04-01T03:45:09;98286.91;;;1.97;87.79
56074;BME280;41950;55.840;37.442;2023-04-01T03:47:35;98280.94;;;1.97;87.34
56074;BME280;41950;55.840;37.442;2023-04-01T03:50:01;98293.72;;;2.00;87.41
56074;BME280;41950;55.840;37.442;2023-04-01T03:52:27;98286.06;;;1.95;87.55
56074;BME280;41950;55.840;37.442;2023-04-01T03:54:52;98278.41;;;1.94;87.25
56074;BME280;41950;55.840;37.442;2023-04-01T03:57:18;98275.81;;;1.97;87.38
56074;BME280;41950;55.840;37.442;2023-04-01T03:59:43;98303.03;;;2.08;87.18
56074;BME280;41950;55.840;37.442;2023-04-01T04:02:09;98308.19;;;2.05;87.10
56074;BME280;41950;55.840;37.442;2023-04-01T04:04:35;98298.84;;;1.95;87.09
56074;BME280;41950;55.840;37.442;2023-04-01T04:07:00;98310.72;;;2.07;87.35
56074;BME280;41950;55.840;37.442;2023-04-01T04:09:26;98308.16;;;2.08;86.86
56074;BME280;41950;55.840;37.442;2023-04-01T04:11:52;98310.72;;;2.08;87.18
56074;BME280;41950;55.840;37.442;2023-04-01T04:14:18;98289.47;;;1.94;86.95
56074;BME280;41950;55.840;37.442;2023-04-01T04:16:44;98274.19;;;1.80;86.86
56074;BME280;41950;55.840;37.442;2023-04-01T04:19:09;98295.41;;;1.99;86.94
56074;BME280;41950;55.840;37.442;2023-04-01T04:21:35;98323.50;;;2.08;86.85
56074;BME280;41950;55.840;37.442;2023-04-01T04:24:01;98322.66;;;2.06;86.74
56074;BME280;41950;55.840;37.442;2023-04-01T04:26:27;98332.03;;;2.09;86.79
56074;BME280;41950;55.840;37.442;2023-04-01T04:28:54;98298.84;;;1.91;86.79
56074;BME280;41950;55.840;37.442;2023-04-01T04:31:24;98333.75;;;2.08;86.80
56074;BME280;41950;55.840;37.442;2023-04-01T04:33:50;98318.41;;;2.05;86.74
56074;BME280;41950;55.840;37.442;2023-04-01T04:36:17;98333.72;;;2.11;86.76
56074;BME280;41950;55.840;37.442;2023-04-01T04:38:43;98315.03;;;2.00;86.68
56074;BME280;41950;55.840;37.442;2023-04-01T04:41:10;98328.63;;;2.10;86.77
56074;BME280;41950;55.840;37.442;2023-04-01T04:43:35;98321.84;;;2.00;86.71
56074;BME280;41950;55.840;37.442;2023-04-01T04:46:07;98330.34;;;2.06;86.60
56074;BME280;41950;55.840;37.442;2023-04-01T04:48:33;98334.63;;;2.06;86.90
56074;BME280;41950;55.840;37.442;2023-04-01T04:50:59;98348.19;;;2.15;86.87
56074;BME280;41950;55.840;37.442;2023-04-01T04:53:24;98337.09;;;2.23;86.73
56074;BME280;41950;55.840;37.442;2023-04-01T04:55:51;98326.88;;;2.23;86.33
56074;BME280;41950;55.840;37.442;2023-04-01T04:58:17;98345.59;;;2.26;85.98
56074;BME280;41950;55.840;37.442;2023-04-01T05:00:43;98354.09;;;2.33;86.32
56074;BME280;41950;55.840;37.442;2023-04-01T05:03:10;98350.66;;;2.38;86.11
56074;BME280;41950;55.840;37.442;2023-04-01T05:05:36;98338.81;;;2.24;86.12
56074;BME280;41950;55.840;37.442;2023-04-01T05:08:02;98359.19;;;2.37;85.99
56074;BME280;41950;55.840;37.442;2023-04-01T05:10:27;98362.59;;;2.38;86.15
56074;BME280;41950;55.840;37.442;2023-04-01T05:12:53;98365.94;;;2.46;86.33
56074;BME280;41950;55.840;37.442;2023-04-01T05:15:19;98352.34;;;2.41;85.82
56074;BME280;41950;55.840;37.442;2023-04-01T05:17:45;98348.03;;;2.46;85.83
56074;BME280;41950;55.840;37.442;2023-04-01T05:20:12;98350.59;;;2.49;85.90
56074;BME280;41950;55.840;37.442;2023-04-01T05:22:38;98365.88;;;2.61;85.69
56074;BME280;41950;55.840;37.442;2023-04-01T05:25:06;98370.97;;;2.66;85.57
56074;BME280;41950;55.840;37.442;2023-04-01T05:27:32;98366.66;;;2.69;85.41
56074;BME280;41950;55.840;37.442;2023-04-01T05:29:57;98365.81;;;2.70;85.39
56074;BME280;41950;55.840;37.442;2023-04-01T05:32:23;98373.47;;;2.73;85.01
56074;BME280;41950;55.840;37.442;2023-04-01T05:34:53;98375.16;;;2.79;85.10
56074;BME280;41950;55.840;37.442;2023-04-01T05:37:19;98374.19;;;2.92;85.37
56074;BME280;41950;55.840;37.442;2023-04-01T05:39:45;98364.75;;;2.96;84.94
56074;BME280;41950;55.840;37.442;2023-04-01T05:42:11;98374.91;;;3.09;84.62
56074;BME280;41950;55.840;37.442;2023-04-01T05:44:37;98382.56;;;3.14;84.54
56074;BME280;41950;55.840;37.442;2023-04-01T05:47:04;98368.13;;;3.04;83.93
56074;BME280;41950;55.840;37.442;2023-04-01T05:49:29;98381.81;;;3.03;84.28
56074;BME280;41950;55.840;37.442;2023-04-01T05:51:56;98363.06;;;2.95;84.46
56074;BME280;41950;55.840;37.442;2023-04-01T05:54:25;98359.69;;;2.91;84.37
56074;BME280;41950;55.840;37.442;2023-04-01T05:57:06;98387.78;;;3.05;84.21
56074;BME280;41950;55.840;37.442;2023-04-01T05:59:31;98364.75;;;2.96;84.38
56074;BME280;41950;55.840;37.442;2023-04-01T06:01:57;98391.91;;;3.20;84.59
56074;BME280;41950;55.840;37.442;2023-04-01T06:04:23;98378.19;;;3.25;84.44
56074;BME280;41950;55.840;37.442;2023-04-01T06:06:50;98387.31;;;3.54;84.27
56074;BME280;41950;55.840;37.442;2023-04-01T06:09:19;98368.50;;;3.55;83.67
56074;BME280;41950;55.840;37.442;2023-04-01T06:14:38;98388.53;;;4.00;82.62
56074;BME280;41950;55.840;37.442;2023-04-01T06:22:17;98396.63;;;4.38;81.31
56074;BME280;41950;55.840;37.442;2023-04-01T06:24:57;98393.94;;;4.47;80.99
56074;BME280;41950;55.840;37.442;2023-04-01T06:33:20;98394.41;;;4.75;78.78
56074;BME280;41950;55.840;37.442;2023-04-01T06:42:10;98407.91;;;4.26;78.58
56074;BME280;41950;55.840;37.442;2023-04-01T06:53:11;98417.63;;;3.99;80.29
56074;BME280;41950;55.840;37.442;2023-04-01T06:55:48;98422.59;;;4.16;79.93
56074;BME280;41950;55.840;37.442;2023-04-01T07:04:36;98419.56;;;4.51;79.64
56074;BME280;41950;55.840;37.442;2023-04-01T07:07:21;98403.16;;;4.61;79.19
56074;BME280;41950;55.840;37.442;2023-04-01T07:09:52;98423.63;;;4.69;78.54
56074;BME280;41950;55.840;37.442;2023-04-01T07:12:35;98431.84;;;4.94;78.63
56074;BME280;41950;55.840;37.442;2023-04-01T07:15:25;98426.31;;;5.17;77.35
56074;BME280;41950;55.840;37.442;2023-04-01T07:18:03;98416.00;;;5.18;77.15
56074;BME280;41950;55.840;37.442;2023-04-01T07:20:32;98427.75;;;5.35;76.90
56074;BME280;41950;55.840;37.442;2023-04-01T07:23:07;98428.41;;;5.47;75.94
56074;BME280;41950;55.840;37.442;2023-04-01T07:25:38;98400.13;;;5.46;75.62
56074;BME280;41950;55.840;37.442;2023-04-01T07:28:11;98429.63;;;5.77;75.13
56074;BME280;41950;55.840;37.442;2023-04-01T07:30:44;98437.28;;;5.80;75.16
56074;BME280;41950;55.840;37.442;2023-04-01T07:33:21;98442.44;;;5.80;74.37
56074;BME280;41950;55.840;37.442;2023-04-01T07:36:03;98418.66;;;5.66;74.10
56074;BME280;41950;55.840;37.442;2023-04-01T07:39:10;98444.13;;;5.81;73.94
56074;BME280;41950;55.840;37.442;2023-04-01T07:47:55;98458.97;;;6.15;72.09
56074;BME280;41950;55.840;37.442;2023-04-01T07:50:32;98446.03;;;6.18;72.44
56074;BME280;41950;55.840;37.442;2023-04-01T07:55:54;98402.81;;;5.87;72.30
56074;BME280;41950;55.840;37.442;2023-04-01T08:06:56;98454.75;;;6.54;70.42
56074;BME280;41950;55.840;37.442;2023-04-01T08:12:52;98458.75;;;6.69;68.91
56074;BME280;41950;55.840;37.442;2023-04-01T08:21:18;98462.81;;;6.79;69.05
56074;BME280;41950;55.840;37.442;2023-04-01T08:23:30;98453.28;;;6.82;69.53
56074;BME280;41950;55.840;37.442;2023-04-01T08:26:02;98457.19;;;7.00;68.73
56074;BME280;41950;55.840;37.442;2023-04-01T08:28:41;98471.44;;;7.18;67.74
56074;BME280;41950;55.840;37.442;2023-04-01T08:33:50;98469.97;;;6.68;68.28
56074;BME280;41950;55.840;37.442;2023-04-01T08:36:20;98467.56;;;6.57;68.65
56074;BME280;41950;55.840;37.442;2023-04-01T08:38:53;98472.22;;;6.41;68.66
56074;BME280;41950;55.840;37.442;2023-04-01T08:41:31;98468.50;;;6.11;68.27
56074;BME280;41950;55.840;37.442;2023-04-01T08:44:34;98469.38;;;6.10;68.80
56074;BME280;41950;55.840;37.442;2023-04-01T08:47:28;98474.44;;;6.15;69.59
56074;BME280;41950;55.840;37.442;2023-04-01T08:56:01;98484.09;;;6.04;68.32
56074;BME280;41950;55.840;37.442;2023-04-01T09:09:21;98487.63;;;5.98;65.62
56074;BME280;41950;55.840;37.442;2023-04-01T09:12:18;98488.66;;;5.86;65.29
56074;BME280;41950;55.840;37.442;2023-04-01T09:17:48;98492.22;;;5.79;62.56
56074;BME280;41950;55.840;37.442;2023-04-01T09:23:23;98504.03;;;5.93;64.44
56074;BME280;41950;55.840;37.442;2023-04-01T09:31:51;98492.19;;;6.30;65.69
56074;BME280;41950;55.840;37.442;2023-04-01T09:40:31;98501.47;;;6.80;62.78
56074;BME280;41950;55.840;37.442;2023-04-01T09:43:04;98497.94;;;6.86;62.37
56074;BME280;41950;55.840;37.442;2023-04-01T09:48:09;98496.25;;;6.83;61.62
56074;BME280;41950;55.840;37.442;2023-04-01T09:50:49;98523.22;;;7.09;60.47
56074;BME280;41950;55.840;37.442;2023-04-01T09:56:27;98498.22;;;7.11;58.25
56074;BME280;41950;55.840;37.442;2023-04-01T10:11:22;98518.63;;;7.96;58.42
56074;BME280;41950;55.840;37.442;2023-04-01T10:19:41;98532.00;;;8.75;58.22
56074;BME280;41950;55.840;37.442;2023-04-01T10:22:17;98534.97;;;8.61;58.10
56074;BME280;41950;55.840;37.442;2023-04-01T10:25:10;98535.25;;;8.52;58.46
56074;BME280;41950;55.840;37.442;2023-04-01T10:28:03;98536.31;;;8.44;58.52
56074;BME280;41950;55.840;37.442;2023-04-01T10:39:27;98538.25;;;8.97;54.65
56074;BME280;41950;55.840;37.442;2023-04-01T10:54:08;98516.59;;;10.83;50.33
56074;BME280;41950;55.840;37.442;2023-04-01T11:02:32;98546.81;;;12.19;47.62
56074;BME280;41950;55.840;37.442;2023-04-01T11:08:06;98547.84;;;12.55;45.16
56074;BME280;41950;55.840;37.442;2023-04-01T11:25:03;98537.72;;;11.43;47.26
56074;BME280;41950;55.840;37.442;2023-04-01T11:30:26;98545.88;;;11.10;47.73
56074;BME280;41950;55.840;37.442;2023-04-01T11:36:08;98548.81;;;11.25;47.59
56074;BME280;41950;55.840;37.442;2023-04-01T11:44:20;98543.41;;;11.53;45.98
56074;BME280;41950;55.840;37.442;2023-04-01T11:50:08;98549.56;;;11.28;46.19
56074;BME280;41950;55.840;37.442;2023-04-01T11:55:50;98543.91;;;11.17;45.71
56074;BME280;41950;55.840;37.442;2023-04-01T12:01:20;98522.81;;;10.79;44.96
56074;BME280;41950;55.840;37.442;2023-04-01T12:50:19;98570.94;;;11.11;45.42
56074;BME280;41950;55.840;37.442;2023-04-01T12:55:42;98575.00;;;10.72;46.27
56074;BME280;41950;55.840;37.442;2023-04-01T13:06:35;98592.97;;;10.27;47.66
56074;BME280;41950;55.840;37.442;2023-04-01T13:17:48;98603.03;;;9.53;49.22
56074;BME280;41950;55.840;37.442;2023-04-01T13:23:09;98604.41;;;9.37;48.90
56074;BME280;41950;55.840;37.442;2023-04-01T13:28:29;98597.84;;;9.25;49.45
56074;BME280;41950;55.840;37.442;2023-04-01T13:31:24;98600.28;;;9.30;49.68
56074;BME280;41950;55.840;37.442;2023-04-01T13:45:14;98607.59;;;8.86;48.56
56074;BME280;41950;55.840;37.442;2023-04-01T13:47:57;98629.00;;;8.91;48.31
56074;BME280;41950;55.840;37.442;2023-04-01T13:56:33;98614.72;;;8.78;46.95
56074;BME280;41950;55.840;37.442;2023-04-01T14:34:11;98664.63;;;8.12;54.12
56074;BME280;41950;55.840;37.442;2023-04-01T14:36:43;98666.47;;;8.07;54.57
56074;BME280;41950;55.840;37.442;2023-04-01T14:51:16;98690.88;;;7.95;58.11
56074;BME280;41950;55.840;37.442;2023-04-01T14:56:42;98697.19;;;7.81;59.61
56074;BME280;41950;55.840;37.442;2023-04-01T14:59:13;98694.69;;;7.78;60.54
56074;BME280;41950;55.840;37.442;2023-04-01T15:02:44;98693.00;;;7.77;61.43
56074;BME280;41950;55.840;37.442;2023-04-01T15:08:41;98712.94;;;7.70;62.63
56074;BME280;41950;55.840;37.442;2023-04-01T15:13:14;98716.59;;;7.60;63.91
56074;BME280;41950;55.840;37.442;2023-04-01T15:24:07;98721.28;;;7.41;66.44
56074;BME280;41950;55.840;37.442;2023-04-01T15:31:55;98728.19;;;7.40;66.84
56074;BME280;41950;55.840;37.442;2023-04-01T15:34:42;98722.19;;;7.37;67.23
56074;BME280;41950;55.840;37.442;2023-04-01T15:37:23;98745.38;;;7.41;66.95
56074;BME280;41950;55.840;37.442;2023-04-01T15:40:15;98751.50;;;7.34;67.91
56074;BME280;41950;55.840;37.442;2023-04-01T15:45:39;98749.16;;;7.22;69.08
56074;BME280;41950;55.840;37.442;2023-04-01T15:48:45;98756.09;;;7.20;69.21
56074;BME280;41950;55.840;37.442;2023-04-01T16:04:58;98774.19;;;7.19;71.45
56074;BME280;41950;55.840;37.442;2023-04-01T16:12:58;98782.91;;;7.10;72.83
56074;BME280;41950;55.840;37.442;2023-04-01T16:21:04;98797.66;;;7.03;74.33
56074;BME280;41950;55.840;37.442;2023-04-01T16:23:52;98795.09;;;7.03;74.21
56074;BME280;41950;55.840;37.442;2023-04-01T16:32:21;98794.34;;;6.97;74.66
56074;BME280;41950;55.840;37.442;2023-04-01T16:35:16;98802.13;;;6.94;74.81
56074;BME280;41950;55.840;37.442;2023-04-01T16:51:53;98750.66;;;6.35;75.98
56074;BME280;41950;55.840;37.442;2023-04-01T16:57:30;98659.50;;;5.84;75.73
56074;BME280;41950;55.840;37.442;2023-04-01T17:05:39;98822.91;;;6.85;75.98
56074;BME280;41950;55.840;37.442;2023-04-01T17:08:16;98819.56;;;6.79;75.96
56074;BME280;41950;55.840;37.442;2023-04-01T17:22:26;98794.03;;;6.63;76.15
56074;BME280;41950;55.840;37.442;2023-04-01T17:25:17;98824.66;;;6.82;76.38
56074;BME280;41950;55.840;37.442;2023-04-01T17:27:59;98834.09;;;6.85;76.27
56074;BME280;41950;55.840;37.442;2023-04-01T17:31:15;98829.75;;;6.87;76.50
56074;BME280;41950;55.840;37.442;2023-04-01T17:33:51;98794.06;;;6.61;76.29
56074;BME280;41950;55.840;37.442;2023-04-01T17:36:51;98818.72;;;6.77;76.42
56074;BME280;41950;55.840;37.442;2023-04-01T17:39:33;98823.06;;;6.75;76.19
56074;BME280;41950;55.840;37.442;2023-04-01T17:42:14;98795.81;;;6.59;76.21
56074;BME280;41950;55.840;37.442;2023-04-01T17:48:15;98841.22;;;6.68;76.72
56074;BME280;41950;55.840;37.442;2023-04-01T17:53:30;98840.44;;;6.63;76.86
56074;BME280;41950;55.840;37.442;2023-04-01T18:04:15;98854.03;;;6.74;76.65
56074;BME280;41950;55.840;37.442;2023-04-01T18:18:54;98807.25;;;6.41;77.02
56074;BME280;41950;55.840;37.442;2023-04-01T18:21:46;98864.28;;;6.77;77.33
56074;BME280;41950;55.840;37.442;2023-04-01T18:26:42;98837.94;;;6.60;77.31
56074;BME280;41950;55.840;37.442;2023-04-01T18:32:34;98879.03;;;6.69;77.66
56074;BME280;41950;55.840;37.442;2023-04-01T18:35:24;98885.94;;;6.67;77.54
56074;BME280;41950;55.840;37.442;2023-04-01T18:38:26;98889.44;;;6.63;77.40
56074;BME280;41950;55.840;37.442;2023-04-01T18:44:11;98894.56;;;6.66;77.59
56074;BME280;41950;55.840;37.442;2023-04-01T18:47:05;98895.41;;;6.66;77.85
56074;BME280;41950;55.840;37.442;2023-04-01T18:49:52;98898.88;;;6.64;78.00
56074;BME280;41950;55.840;37.442;2023-04-01T18:52:23;98909.13;;;6.68;77.75
56074;BME280;41950;55.840;37.442;2023-04-01T18:57:51;98875.81;;;6.53;78.01
56074;BME280;41950;55.840;37.442;2023-04-01T19:00:26;98905.56;;;6.75;77.85
56074;BME280;41950;55.840;37.442;2023-04-01T19:02:58;98903.97;;;6.68;78.18
56074;BME280;41950;55.840;37.442;2023-04-01T19:05:35;98879.22;;;6.54;78.29
56074;BME280;41950;55.840;37.442;2023-04-01T19:08:34;98909.06;;;6.73;78.08
56074;BME280;41950;55.840;37.442;2023-04-01T19:13:57;98903.91;;;6.73;78.46
56074;BME280;41950;55.840;37.442;2023-04-01T19:30:56;98872.16;;;6.06;79.97
56074;BME280;41950;55.840;37.442;2023-04-01T19:42:11;98929.25;;;6.40;81.54
56074;BME280;41950;55.840;37.442;2023-04-01T19:50:27;98933.53;;;6.43;81.43
56074;BME280;41950;55.840;37.442;2023-04-01T19:52:58;98921.56;;;6.39;81.79
56074;BME280;41950;55.840;37.442;2023-04-01T20:00:53;98921.63;;;6.33;81.40
56074;BME280;41950;55.840;37.442;2023-04-01T20:08:49;98937.75;;;6.48;81.38
56074;BME280;41950;55.840;37.442;2023-04-01T20:11:38;98937.69;;;6.51;81.66
56074;BME280;41950;55.840;37.442;2023-04-01T20:14:35;98937.69;;;6.51;81.86
56074;BME280;41950;55.840;37.442;2023-04-01T20:17:20;98936.13;;;6.40;81.44
56074;BME280;41950;55.840;37.442;2023-04-01T20:19:54;98936.09;;;6.43;81.84
56074;BME280;41950;55.840;37.442;2023-04-01T20:22:31;98940.44;;;6.39;81.94
56074;BME280;41950;55.840;37.442;2023-04-01T20:25:19;98904.56;;;6.21;82.38
56074;BME280;41950;55.840;37.442;2023-04-01T20:27:54;98923.31;;;6.35;82.06
56074;BME280;41950;55.840;37.442;2023-04-01T20:36:12;98937.66;;;6.55;82.04
56074;BME280;41950;55.840;37.442;2023-04-01T21:03:18;98947.09;;;6.56;82.61
56074;BME280;41950;55.840;37.442;2023-04-01T21:17:06;98954.81;;;6.57;82.05
56074;BME280;41950;55.840;37.442;2023-04-01T21:25:26;98930.94;;;6.44;82.23
56074;BME280;41950;55.840;37.442;2023-04-01T21:34:32;98968.50;;;6.64;82.25
56074;BME280;41950;55.840;37.442;2023-04-01T21:37:17;98963.41;;;6.58;82.14
56074;BME280;41950;55.840;37.442;2023-04-01T21:48:13;98975.25;;;6.72;81.92
56074;BME280;41950;55.840;37.442;2023-04-01T21:50:45;98969.25;;;6.70;82.37
56074;BME280;41950;55.840;37.442;2023-04-01T22:01:31;98976.00;;;6.79;82.13
56074;BME280;41950;55.840;37.442;2023-04-01T22:13:42;98995.78;;;6.80;82.10
56074;BME280;41950;55.840;37.442;2023-04-01T22:16:31;98977.75;;;6.78;82.14
56074;BME280;41950;55.840;37.442;2023-04-01T22:19:23;98982.84;;;6.83;82.20
56074;BME280;41950;55.840;37.442;2023-04-01T22:21:58;98976.00;;;6.80;82.01
56074;BME280;41950;55.840;37.442;2023-04-01T22:24:29;98976.00;;;6.80;82.40
56074;BME280;41950;55.840;37.442;2023-04-01T22:32:04;98980.22;;;6.85;82.05
56074;BME280;41950;55.840;37.442;2023-04-01T22:34:47;98980.25;;;6.86;82.48
56074;BME280;41950;55.840;37.442;2023-04-01T22:37:32;98954.66;;;6.69;82.45
56074;BME280;41950;55.840;37.442;2023-04-01T22:40:13;98988.84;;;6.87;82.25
56074;BME280;41950;55.840;37.442;2023-04-01T22:42:52;98983.66;;;6.88;82.48
56074;BME280;41950;55.840;37.442;2023-04-01T22:47:59;98979.38;;;6.87;82.61
56074;BME280;41950;55.840;37.442;2023-04-01T22:51:03;98968.28;;;6.79;82.74
56074;BME280;41950;55.840;37.442;2023-04-01T22:55:52;98995.66;;;6.89;82.82
56074;BME280;41950;55.840;37.442;2023-04-01T22:58:31;98993.03;;;6.94;82.73
56074;BME280;41950;55.840;37.442;2023-04-01T23:01:04;98987.06;;;6.90;83.19
56074;BME280;41950;55.840;37.442;2023-04-01T23:03:32;98990.47;;;6.92;83.17
56074;BME280;41950;55.840;37.442;2023-04-01T23:06:02;98987.13;;;6.86;83.68
56074;BME280;41950;55.840;37.442;2023-04-01T23:11:18;99000.06;;;6.81;84.76
56074;BME280;41950;55.840;37.442;2023-04-01T23:26:13;98989.91;;;6.69;86.25
56074;BME280;41950;55.840;37.442;2023-04-01T23:28:45;98903.88;;;6.08;87.12
56074;BME280;41950;55.840;37.442;2023-04-01T23:34:23;98999.53;;;6.55;88.61
56074;BME280;41950;55.840;37.442;2023-04-01T23:36:49;98988.47;;;6.46;89.05
56074;BME280;41950;55.840;37.442;2023-04-01T23:39:34;98988.41;;;6.51;89.35
56074;BME280;41950;55.840;37.442;2023-04-01T23:42:31;98981.53;;;6.51;89.28
56074;BME280;41950;55.840;37.442;2023-04-01T23:45:00;98967.13;;;6.35;89.83
56074;BME280;41950;55.840;37.442;2023-04-01T23:47:32;98984.13;;;6.50;89.84
56074;BME280;41950;55.840;37.442;2023-04-01T23:52:42;98999.59;;;6.50;89.95
56074;BME280;41950;55.840;37.442;2023-04-01T23:55:22;99006.38;;;6.56;89.85
